Asotin, Washington
Current Conditions -  °F | °C
As of 3:56 PM on Saturday 20 Dec 2014 (Local Time) from KLWS Reporting Station
Light Rain Light Rain  
Wind Chill: 39°   Ceiling: 4300
Heat Index: 43°   Visibility: 10mi
Dew Point: 40°   Wind: 7mph
Humidity: 89%   Direction: 100°E
Pressure: 29.74"   Gusts: NA
Location:  46.34°N, 117.05°W
Report Text: KLWS 202356Z AUTO 10006KT 10SM -RA OVC043 06/04 A2974 RMK AO2 SLP081 P0004 60006 T00610044 10072 20050 56014
Loading
Personal Weather Stations






























Interactive Weather Map New forecast layout! Learn more

10-Day Weather Forecast

Advertisements
Track Severe Weather on mobile